createdAt,value
2022-11-30T00:02:43.143Z,101903.81
2022-11-30T00:05:47.410Z,101907.91
2022-11-30T00:08:50.411Z,101906.63
2022-11-30T00:11:55.763Z,101914.50
2022-11-30T00:14:59.788Z,101917.97
2022-11-30T00:18:02.520Z,101919.25
2022-11-30T00:21:09.848Z,101916.28
2022-11-30T00:24:12.668Z,101918.72
2022-11-30T00:27:18.045Z,101928.91
2022-11-30T00:30:20.934Z,101919.97
2022-11-30T00:33:24.932Z,101927.09
2022-11-30T00:36:28.901Z,101920.78
2022-11-30T00:39:35.937Z,101919.53
2022-11-30T00:42:41.286Z,101916.94
2022-11-30T00:45:44.103Z,101912.81
2022-11-30T00:48:48.371Z,101919.28
2022-11-30T00:51:51.148Z,101920.69
2022-11-30T00:54:53.811Z,101912.41
2022-11-30T00:57:59.230Z,101926.56
2022-11-30T01:01:02.156Z,101927.06
2022-11-30T01:04:07.221Z,101929.13
2022-11-30T01:07:10.029Z,101927.94
2022-11-30T01:10:14.051Z,101938.53
2022-11-30T01:13:18.120Z,101927.66
2022-11-30T01:16:24.801Z,101930.53
2022-11-30T01:19:28.875Z,101934.56
2022-11-30T01:22:31.618Z,101937.00
2022-11-30T01:25:35.522Z,101944.88
2022-11-30T01:28:40.845Z,101939.47
2022-11-30T01:31:44.707Z,101943.09
2022-11-30T01:34:47.564Z,101932.06
2022-11-30T01:41:15.560Z,101948.56
2022-11-30T01:44:53.027Z,101942.38
2022-11-30T01:47:58.338Z,101946.69
2022-11-30T01:51:03.009Z,101942.94
2022-11-30T01:54:09.635Z,101949.50
2022-11-30T01:57:17.574Z,101945.00
2022-11-30T02:00:22.276Z,101937.84
2022-11-30T02:03:33.518Z,101937.69
2022-11-30T02:06:37.458Z,101938.47
2022-11-30T02:09:44.028Z,101950.44
2022-11-30T02:13:04.831Z,101944.13
2022-11-30T02:16:19.620Z,101943.53
2022-11-30T02:19:49.772Z,101949.81
2022-11-30T02:23:10.367Z,101941.84
2022-11-30T02:26:30.070Z,101943.06
2022-11-30T02:29:40.065Z,101948.31
2022-11-30T02:32:49.235Z,101946.16
2022-11-30T02:35:56.624Z,101946.97
2022-11-30T02:39:00.897Z,101942.69
2022-11-30T02:42:04.777Z,101948.22
2022-11-30T02:45:10.500Z,101952.28
2022-11-30T02:48:18.330Z,101955.00
2022-11-30T02:51:27.394Z,101956.75
2022-11-30T02:54:30.161Z,101948.31
2022-11-30T02:57:34.269Z,101954.59
2022-11-30T03:00:39.609Z,101947.72
2022-11-30T03:03:42.299Z,101948.38
2022-11-30T03:06:46.190Z,101949.13
2022-11-30T03:09:48.918Z,101951.59
2022-11-30T03:12:52.790Z,101956.41
2022-11-30T03:15:56.865Z,101958.03
2022-11-30T03:19:01.463Z,101956.69
2022-11-30T03:22:04.335Z,101957.19
2022-11-30T03:25:08.930Z,101961.09
2022-11-30T03:28:11.654Z,101946.25
2022-11-30T03:31:16.982Z,101959.66
2022-11-30T03:34:20.990Z,101961.72
2022-11-30T03:37:23.718Z,101964.06
2022-11-30T03:40:27.608Z,101966.59
2022-11-30T03:43:30.863Z,101968.84
2022-11-30T03:46:36.216Z,101957.66
2022-11-30T03:49:38.951Z,101965.50
2022-11-30T03:52:42.823Z,101973.25
2022-11-30T03:55:45.592Z,101970.19
2022-11-30T03:58:49.473Z,101970.28
2022-11-30T04:01:54.832Z,101966.88
2022-11-30T04:04:57.576Z,101971.88
2022-11-30T04:08:01.516Z,101973.88
2022-11-30T04:11:05.209Z,101983.22
2022-11-30T04:14:09.203Z,101977.41
2022-11-30T04:17:14.451Z,101984.09
2022-11-30T04:20:17.270Z,101979.75
2022-11-30T04:26:43.573Z,101979.00
2022-11-30T04:29:47.555Z,101978.13
2022-11-30T04:32:51.629Z,101976.22
2022-11-30T04:35:57.459Z,101978.94
2022-11-30T04:39:01.310Z,101982.47
2022-11-30T04:42:04.107Z,101990.19
2022-11-30T04:45:07.695Z,101993.38
2022-11-30T04:48:12.259Z,101997.69
2022-11-30T04:51:16.126Z,102004.06
2022-11-30T04:54:18.887Z,102007.59
2022-11-30T04:57:22.804Z,102000.78
2022-11-30T05:00:25.936Z,102001.34
2022-11-30T05:03:31.191Z,101995.13
2022-11-30T05:06:35.041Z,102000.22
2022-11-30T05:09:37.788Z,101995.47
2022-11-30T05:12:40.484Z,102009.16
2022-11-30T05:15:43.188Z,102004.25
2022-11-30T05:18:47.375Z,102013.84
2022-11-30T05:21:51.343Z,102016.63
2022-11-30T05:24:54.034Z,102011.03
2022-11-30T05:27:57.897Z,102018.72
2022-11-30T05:31:04.898Z,102024.16
2022-11-30T05:34:10.211Z,102027.09
2022-11-30T05:37:12.871Z,102031.72
2022-11-30T05:40:15.855Z,102034.66
2022-11-30T05:43:19.549Z,102034.44
2022-11-30T05:46:23.468Z,102035.28
2022-11-30T05:49:27.598Z,102040.56
2022-11-30T05:52:31.488Z,102042.81
2022-11-30T05:55:34.658Z,102040.94
2022-11-30T05:58:40.329Z,102040.75
2022-11-30T06:01:44.328Z,102041.69
2022-11-30T06:04:48.744Z,102042.44
2022-11-30T06:07:53.028Z,102042.44
2022-11-30T06:10:55.726Z,102054.16
2022-11-30T06:13:59.669Z,102055.59
2022-11-30T06:17:03.638Z,102059.91
2022-11-30T06:20:09.088Z,102058.94
2022-11-30T06:23:11.808Z,102072.19
2022-11-30T06:26:14.505Z,102068.63
2022-11-30T06:29:20.035Z,102066.66
2022-11-30T06:32:22.720Z,102070.88
2022-11-30T06:35:28.007Z,102071.06
2022-11-30T06:38:30.874Z,102068.13
2022-11-30T06:41:34.733Z,102069.09
2022-11-30T06:44:38.756Z,102072.75
2022-11-30T06:47:41.601Z,102081.28
2022-11-30T06:50:50.027Z,102083.53
2022-11-30T06:53:53.031Z,102086.44
2022-11-30T06:56:57.795Z,102086.06
2022-11-30T07:00:00.493Z,102081.84
2022-11-30T07:06:26.187Z,102089.91
2022-11-30T07:09:30.044Z,102101.63
2022-11-30T07:12:35.678Z,102092.53
2022-11-30T07:15:39.719Z,102100.22
2022-11-30T07:18:42.432Z,102099.09
2022-11-30T07:21:47.731Z,102104.72
2022-11-30T07:25:08.164Z,102101.75
2022-11-30T07:28:12.045Z,102104.09
2022-11-30T07:31:16.846Z,102102.41
2022-11-30T07:34:21.312Z,102114.13
2022-11-30T07:37:26.593Z,102118.41
2022-11-30T07:40:30.481Z,102119.94
2022-11-30T07:43:33.566Z,102121.06
2022-11-30T07:46:37.547Z,102129.63
2022-11-30T07:49:40.262Z,102119.94
2022-11-30T07:52:45.470Z,102122.75
2022-11-30T07:55:55.485Z,102121.50
2022-11-30T07:59:01.801Z,102125.91
2022-11-30T08:02:04.662Z,102126.31
2022-11-30T08:05:11.204Z,102119.09
2022-11-30T08:08:15.378Z,102115.16
2022-11-30T08:11:19.919Z,102118.72
2022-11-30T08:14:23.825Z,102128.09
2022-11-30T08:17:26.586Z,102127.59
2022-11-30T08:20:30.519Z,102127.91
2022-11-30T08:23:36.696Z,102129.97
2022-11-30T08:26:40.678Z,102138.69
2022-11-30T08:29:43.340Z,102133.53
2022-11-30T08:32:47.386Z,102139.84
2022-11-30T08:35:50.119Z,102146.88
2022-11-30T08:38:55.546Z,102153.91
2022-11-30T08:41:58.420Z,102144.31
2022-11-30T08:45:01.461Z,102158.03
2022-11-30T08:48:06.183Z,102157.78
2022-11-30T08:51:12.404Z,102162.00
2022-11-30T08:54:16.494Z,102161.88
2022-11-30T08:57:22.698Z,102160.84
2022-11-30T09:00:25.470Z,102166.78
2022-11-30T09:03:29.428Z,102170.53
2022-11-30T09:06:32.217Z,102167.63
2022-11-30T09:09:36.844Z,102172.94
2022-11-30T09:12:42.402Z,102172.63
2022-11-30T09:15:45.179Z,102173.41
2022-11-30T09:18:49.895Z,102167.78
2022-11-30T09:21:52.971Z,102173.31
2022-11-30T09:24:58.435Z,102169.81
2022-11-30T09:28:01.148Z,102174.63
2022-11-30T09:31:06.871Z,102176.16
2022-11-30T09:34:12.717Z,102169.72
2022-11-30T09:37:15.475Z,102171.56
2022-11-30T09:40:22.520Z,102175.88
2022-11-30T09:43:37.834Z,102172.16
2022-11-30T09:46:43.751Z,102176.13
2022-11-30T09:49:48.558Z,102174.44
2022-11-30T09:52:55.797Z,102168.09
2022-11-30T09:56:02.726Z,102166.91
2022-11-30T09:59:13.976Z,102169.88
2022-11-30T10:02:18.820Z,102164.72
2022-11-30T10:05:25.344Z,102161.28
2022-11-30T10:08:50.603Z,102161.56
2022-11-30T10:12:03.661Z,102166.16
2022-11-30T10:15:19.716Z,102167.13
2022-11-30T10:18:28.767Z,102163.78
2022-11-30T10:21:46.089Z,102156.31
2022-11-30T10:25:11.643Z,102162.78
2022-11-30T10:28:45.647Z,102165.81
2022-11-30T10:31:45.647Z,102162.06
2022-11-30T10:34:52.686Z,102170.63
2022-11-30T10:37:58.465Z,102171.03
2022-11-30T10:41:06.575Z,102160.31
2022-11-30T10:44:19.481Z,102166.94
2022-11-30T10:47:28.484Z,102160.84
2022-11-30T10:50:32.621Z,102162.22
2022-11-30T10:53:36.666Z,102165.59
2022-11-30T10:56:39.408Z,102165.81
2022-11-30T10:59:48.239Z,102157.91
2022-11-30T11:02:53.454Z,102168.22
2022-11-30T11:06:09.042Z,102168.84
2022-11-30T11:09:30.033Z,102168.63
2022-11-30T11:12:34.191Z,102169.72
2022-11-30T11:15:38.738Z,102163.94
2022-11-30T11:18:53.770Z,102174.28
2022-11-30T11:21:57.771Z,102175.44
2022-11-30T11:25:12.663Z,102181.81
2022-11-30T11:28:20.193Z,102178.97
2022-11-30T11:31:37.555Z,102173.50
2022-11-30T11:34:40.377Z,102173.16
2022-11-30T11:37:53.373Z,102175.25
2022-11-30T11:40:58.668Z,102169.19
2022-11-30T11:44:04.604Z,102176.53
2022-11-30T11:47:10.258Z,102175.78
2022-11-30T11:51:05.008Z,102175.88
2022-11-30T11:53:57.777Z,102170.44
2022-11-30T11:57:00.717Z,102180.91
2022-11-30T12:00:12.495Z,102186.78
2022-11-30T12:03:27.984Z,102180.31
2022-11-30T12:06:35.245Z,102185.56
2022-11-30T12:09:46.620Z,102184.66
2022-11-30T12:12:54.690Z,102183.75
2022-11-30T12:16:11.026Z,102187.78
2022-11-30T12:19:21.471Z,102190.97
2022-11-30T12:22:50.731Z,102194.09
2022-11-30T12:26:06.450Z,102190.19
2022-11-30T12:29:26.436Z,102199.06
2022-11-30T12:32:40.802Z,102206.00
2022-11-30T12:36:04.411Z,102208.31
2022-11-30T12:39:10.818Z,102202.66
2022-11-30T12:42:21.878Z,102199.09
2022-11-30T12:45:30.577Z,102201.88
2022-11-30T12:48:41.835Z,102201.69
2022-11-30T12:51:54.246Z,102207.06
2022-11-30T12:55:05.019Z,102195.72
2022-11-30T12:58:18.375Z,102206.69
2022-11-30T13:01:35.392Z,102203.91
2022-11-30T13:04:43.031Z,102201.81
2022-11-30T13:07:52.395Z,102189.34
2022-11-30T13:14:24.029Z,102202.53
2022-11-30T13:17:28.923Z,102206.06
2022-11-30T13:20:38.737Z,102201.50
2022-11-30T13:23:50.120Z,102199.50
2022-11-30T13:26:58.796Z,102210.88
2022-11-30T13:30:21.553Z,102204.78
2022-11-30T13:33:48.112Z,102208.13
2022-11-30T13:36:51.011Z,102213.50
2022-11-30T13:39:56.750Z,102204.88
2022-11-30T13:42:59.670Z,102209.38
2022-11-30T13:46:20.016Z,102199.41
2022-11-30T13:49:27.325Z,102208.88
2022-11-30T13:53:06.285Z,102201.38
2022-11-30T13:56:35.607Z,102209.94
2022-11-30T13:59:47.782Z,102202.63
2022-11-30T14:02:54.174Z,102204.38
2022-11-30T14:09:57.031Z,102218.25
2022-11-30T14:13:03.720Z,102218.03
2022-11-30T14:16:21.748Z,102224.56
2022-11-30T14:19:25.897Z,102216.63
2022-11-30T14:22:30.784Z,102235.91
2022-11-30T14:25:36.715Z,102229.16
2022-11-30T14:28:48.189Z,102231.56
2022-11-30T14:31:58.035Z,102226.56
2022-11-30T14:35:10.317Z,102226.97
2022-11-30T14:38:26.265Z,102231.03
2022-11-30T14:41:32.311Z,102232.84
2022-11-30T14:44:40.263Z,102240.13
2022-11-30T14:47:48.114Z,102242.47
2022-11-30T14:50:54.793Z,102255.72
2022-11-30T14:54:06.329Z,102253.44
2022-11-30T14:57:22.580Z,102252.38
2022-11-30T15:00:27.098Z,102254.94
2022-11-30T15:03:38.922Z,102258.72
2022-11-30T15:06:44.364Z,102265.03
2022-11-30T15:09:50.967Z,102264.03
2022-11-30T15:12:55.178Z,102274.22
2022-11-30T15:15:59.573Z,102268.47
2022-11-30T15:19:18.963Z,102265.75
2022-11-30T15:22:23.950Z,102275.03
2022-11-30T15:25:35.355Z,102281.50
2022-11-30T15:28:43.676Z,102287.47
2022-11-30T15:35:30.737Z,102284.41
2022-11-30T15:38:52.955Z,102297.28
2022-11-30T15:41:58.506Z,102286.25
2022-11-30T15:45:22.559Z,102299.28
2022-11-30T15:48:33.462Z,102285.38
2022-11-30T15:51:41.864Z,102286.22
2022-11-30T15:54:48.228Z,102288.25
2022-11-30T15:58:03.621Z,102291.34
2022-11-30T16:01:12.171Z,102292.72
2022-11-30T16:04:17.646Z,102294.41
2022-11-30T16:07:20.594Z,102296.25
2022-11-30T16:10:26.471Z,102292.53
2022-11-30T16:13:32.032Z,102298.31
2022-11-30T16:16:36.088Z,102301.31
2022-11-30T16:19:40.203Z,102299.97
2022-11-30T16:22:44.682Z,102304.56
2022-11-30T16:25:49.017Z,102312.16
2022-11-30T16:28:52.969Z,102303.53
2022-11-30T16:31:55.756Z,102312.00
2022-11-30T16:35:00.290Z,102308.31
2022-11-30T16:38:03.980Z,102317.25
2022-11-30T16:41:15.584Z,102313.22
2022-11-30T16:44:19.622Z,102320.31
2022-11-30T16:47:22.388Z,102324.72
2022-11-30T16:50:27.719Z,102325.53
2022-11-30T16:53:31.743Z,102319.66
2022-11-30T16:56:35.704Z,102322.53
2022-11-30T16:59:38.417Z,102328.25
2022-11-30T17:02:47.102Z,102330.97
2022-11-30T17:05:51.254Z,102341.59
2022-11-30T17:08:54.201Z,102341.81
2022-11-30T17:11:58.349Z,102334.31
2022-11-30T17:15:01.115Z,102346.00
2022-11-30T17:18:05.139Z,102346.25
2022-11-30T17:21:14.231Z,102349.25
2022-11-30T17:24:18.323Z,102347.75
2022-11-30T17:27:22.282Z,102347.22
2022-11-30T17:30:26.451Z,102341.63
2022-11-30T17:33:32.465Z,102350.28
2022-11-30T17:36:37.794Z,102347.09
2022-11-30T17:39:44.032Z,102354.50
2022-11-30T17:42:46.699Z,102359.78
2022-11-30T17:45:49.666Z,102348.06
2022-11-30T17:48:53.995Z,102360.47
2022-11-30T17:51:58.056Z,102361.69
2022-11-30T17:55:02.042Z,102356.72
2022-11-30T17:58:04.734Z,102358.41
2022-11-30T18:01:08.309Z,102353.81
2022-11-30T18:04:11.131Z,102361.75
2022-11-30T18:07:16.449Z,102358.25
2022-11-30T18:10:20.321Z,102369.22
2022-11-30T18:13:24.346Z,102372.81
2022-11-30T18:16:30.418Z,102369.63
2022-11-30T18:22:56.420Z,102373.16
2022-11-30T18:25:59.127Z,102374.69
2022-11-30T18:29:04.058Z,102376.53
2022-11-30T18:32:09.244Z,102379.06
2022-11-30T18:35:12.211Z,102380.22
2022-11-30T18:38:16.698Z,102381.78
2022-11-30T18:41:19.469Z,102377.75
2022-11-30T18:44:23.546Z,102387.88
2022-11-30T18:47:26.263Z,102384.50
2022-11-30T18:50:31.070Z,102377.88
2022-11-30T18:53:35.200Z,102390.31
2022-11-30T18:56:40.803Z,102389.59
2022-11-30T18:59:43.490Z,102385.84
2022-11-30T19:02:48.474Z,102387.38
2022-11-30T19:05:51.248Z,102393.56
2022-11-30T19:08:56.687Z,102398.16
2022-11-30T19:12:00.677Z,102402.22
2022-11-30T19:15:04.761Z,102398.88
2022-11-30T19:18:08.064Z,102402.91
2022-11-30T19:21:13.599Z,102399.69
2022-11-30T19:24:18.025Z,102396.94
2022-11-30T19:27:21.984Z,102397.31
2022-11-30T19:30:26.130Z,102401.50
2022-11-30T19:33:30.138Z,102419.09
2022-11-30T19:36:34.101Z,102415.44
2022-11-30T19:39:38.131Z,102413.38
2022-11-30T19:42:42.082Z,102422.22
2022-11-30T19:45:44.798Z,102423.34
2022-11-30T19:48:48.773Z,102425.03
2022-11-30T19:51:51.460Z,102433.59
2022-11-30T19:54:56.780Z,102433.22
2022-11-30T19:57:59.469Z,102439.69
2022-11-30T20:01:03.802Z,102439.91
2022-11-30T20:04:06.692Z,102440.66
2022-11-30T20:07:09.540Z,102443.25
2022-11-30T20:10:14.453Z,102439.31
2022-11-30T20:13:18.153Z,102436.53
2022-11-30T20:16:23.427Z,102444.28
2022-11-30T20:19:26.247Z,102440.03
2022-11-30T20:22:30.499Z,102441.09
2022-11-30T20:25:34.974Z,102443.38
2022-11-30T20:28:41.967Z,102440.00
2022-11-30T20:31:47.091Z,102450.22
2022-11-30T20:34:50.005Z,102444.44
2022-11-30T20:37:53.052Z,102449.69
2022-11-30T20:40:57.396Z,102449.69
2022-11-30T20:47:21.783Z,102453.94
2022-11-30T20:50:25.902Z,102457.16
2022-11-30T20:53:29.826Z,102456.25
2022-11-30T20:56:35.184Z,102450.84
2022-11-30T20:59:40.699Z,102463.91
2022-11-30T21:02:44.686Z,102457.53
2022-11-30T21:05:47.406Z,102454.84
2022-11-30T21:08:51.396Z,102464.56
2022-11-30T21:11:55.670Z,102453.94
2022-11-30T21:14:59.829Z,102457.09
2022-11-30T21:18:02.553Z,102463.53
2022-11-30T21:21:08.257Z,102452.69
2022-11-30T21:24:13.098Z,102458.28
2022-11-30T21:27:18.490Z,102459.13
2022-11-30T21:30:21.342Z,102454.44
2022-11-30T21:33:25.352Z,102458.34
2022-11-30T21:36:29.110Z,102462.84
2022-11-30T21:39:33.709Z,102460.03
2022-11-30T21:42:37.799Z,102455.50
2022-11-30T21:45:41.713Z,102461.38
2022-11-30T21:52:07.770Z,102460.88
2022-11-30T21:55:12.097Z,102460.66
2022-11-30T21:58:17.426Z,102465.91
2022-11-30T22:01:22.372Z,102471.66
2022-11-30T22:04:26.381Z,102466.53
2022-11-30T22:07:32.518Z,102470.09
2022-11-30T22:10:36.504Z,102469.25
2022-11-30T22:13:42.294Z,102466.59
2022-11-30T22:16:45.577Z,102461.84
2022-11-30T22:19:49.726Z,102471.16
2022-11-30T22:22:52.576Z,102475.50
2022-11-30T22:25:56.525Z,102477.75
2022-11-30T22:29:02.678Z,102476.25
2022-11-30T22:32:07.190Z,102478.59
2022-11-30T22:35:10.335Z,102471.81
2022-11-30T22:38:16.023Z,102471.84
2022-11-30T22:41:20.057Z,102474.53
2022-11-30T22:44:25.479Z,102473.34
2022-11-30T22:50:50.950Z,102473.56
2022-11-30T22:53:54.558Z,102474.38
2022-11-30T22:56:58.565Z,102456.97
2022-11-30T23:00:02.584Z,102473.97
2022-11-30T23:03:06.678Z,102469.06
2022-11-30T23:06:10.809Z,102459.81
2022-11-30T23:09:17.032Z,102454.50
2022-11-30T23:12:43.340Z,102462.41
2022-11-30T23:15:45.060Z,102467.31
2022-11-30T23:18:50.873Z,102461.25
2022-11-30T23:21:54.900Z,102464.75
2022-11-30T23:24:57.583Z,102457.31
2022-11-30T23:28:01.565Z,102455.47
2022-11-30T23:31:07.158Z,102455.00
2022-11-30T23:34:12.012Z,102451.47
2022-11-30T23:37:15.997Z,102460.13
2022-11-30T23:40:20.246Z,102458.09
2022-11-30T23:43:24.198Z,102455.75
2022-11-30T23:46:29.589Z,102453.69
2022-11-30T23:49:32.589Z,102459.75
2022-11-30T23:52:36.736Z,102460.66
2022-11-30T23:55:39.433Z,102456.66
2022-11-30T23:58:43.811Z,102462.63
